sensor_id;sensor_type;location;lat;lon;timestamp;P1;durP1;ratioP1;P2;durP2;ratioP2
32295;SDS011;18781;51.550;5.418;2023-04-25T00:01:59;22.90;;;5.82;;
32295;SDS011;18781;51.550;5.418;2023-04-25T00:04:25;25.67;;;5.22;;
32295;SDS011;18781;51.550;5.418;2023-04-25T00:06:53;17.90;;;4.85;;
32295;SDS011;18781;51.550;5.418;2023-04-25T00:09:19;19.75;;;5.38;;
32295;SDS011;18781;51.550;5.418;2023-04-25T00:11:45;15.90;;;4.82;;
32295;SDS011;18781;51.550;5.418;2023-04-25T00:14:10;14.98;;;4.43;;
32295;SDS011;18781;51.550;5.418;2023-04-25T00:16:36;21.00;;;5.60;;
32295;SDS011;18781;51.550;5.418;2023-04-25T00:19:02;21.63;;;4.85;;
32295;SDS011;18781;51.550;5.418;2023-04-25T00:21:28;17.83;;;4.78;;
32295;SDS011;18781;51.550;5.418;2023-04-25T00:23:56;15.57;;;3.92;;
32295;SDS011;18781;51.550;5.418;2023-04-25T00:26:21;19.52;;;4.80;;
32295;SDS011;18781;51.550;5.418;2023-04-25T00:28:47;18.02;;;4.40;;
32295;SDS011;18781;51.550;5.418;2023-04-25T00:31:13;27.70;;;4.35;;
32295;SDS011;18781;51.550;5.418;2023-04-25T00:33:39;13.57;;;4.07;;
32295;SDS011;18781;51.550;5.418;2023-04-25T00:36:05;12.32;;;4.00;;
32295;SDS011;18781;51.550;5.418;2023-04-25T00:38:31;16.48;;;4.45;;
32295;SDS011;18781;51.550;5.418;2023-04-25T00:40:57;17.38;;;4.20;;
32295;SDS011;18781;51.550;5.418;2023-04-25T00:43:24;18.13;;;3.95;;
32295;SDS011;18781;51.550;5.418;2023-04-25T00:45:51;20.57;;;4.00;;
32295;SDS011;18781;51.550;5.418;2023-04-25T00:48:17;13.68;;;3.78;;
32295;SDS011;18781;51.550;5.418;2023-04-25T00:50:46;23.52;;;4.60;;
32295;SDS011;18781;51.550;5.418;2023-04-25T00:53:18;19.70;;;4.72;;
32295;SDS011;18781;51.550;5.418;2023-04-25T00:55:44;20.65;;;4.18;;
32295;SDS011;18781;51.550;5.418;2023-04-25T00:58:09;18.30;;;4.30;;
32295;SDS011;18781;51.550;5.418;2023-04-25T01:00:35;15.10;;;3.83;;
32295;SDS011;18781;51.550;5.418;2023-04-25T01:03:01;18.10;;;4.72;;
32295;SDS011;18781;51.550;5.418;2023-04-25T01:05:28;19.48;;;4.53;;
32295;SDS011;18781;51.550;5.418;2023-04-25T01:07:54;20.63;;;4.63;;
32295;SDS011;18781;51.550;5.418;2023-04-25T01:10:20;21.15;;;4.95;;
32295;SDS011;18781;51.550;5.418;2023-04-25T01:12:46;16.00;;;4.15;;
32295;SDS011;18781;51.550;5.418;2023-04-25T01:15:12;17.15;;;4.13;;
32295;SDS011;18781;51.550;5.418;2023-04-25T01:17:37;21.33;;;4.32;;
32295;SDS011;18781;51.550;5.418;2023-04-25T01:20:04;17.00;;;4.60;;
32295;SDS011;18781;51.550;5.418;2023-04-25T01:22:32;17.42;;;3.78;;
32295;SDS011;18781;51.550;5.418;2023-04-25T01:24:58;18.20;;;4.85;;
32295;SDS011;18781;51.550;5.418;2023-04-25T01:27:25;17.95;;;4.72;;
32295;SDS011;18781;51.550;5.418;2023-04-25T01:29:51;22.80;;;4.93;;
32295;SDS011;18781;51.550;5.418;2023-04-25T01:32:17;18.05;;;5.28;;
32295;SDS011;18781;51.550;5.418;2023-04-25T01:34:43;21.23;;;4.93;;
32295;SDS011;18781;51.550;5.418;2023-04-25T01:37:08;19.45;;;4.72;;
32295;SDS011;18781;51.550;5.418;2023-04-25T01:39:34;16.27;;;4.70;;
32295;SDS011;18781;51.550;5.418;2023-04-25T01:42:00;18.27;;;4.28;;
32295;SDS011;18781;51.550;5.418;2023-04-25T01:44:26;20.40;;;5.03;;
32295;SDS011;18781;51.550;5.418;2023-04-25T01:46:52;21.98;;;4.93;;
32295;SDS011;18781;51.550;5.418;2023-04-25T01:49:17;22.48;;;5.13;;
32295;SDS011;18781;51.550;5.418;2023-04-25T01:51:43;21.50;;;5.10;;
32295;SDS011;18781;51.550;5.418;2023-04-25T01:54:09;25.52;;;4.95;;
32295;SDS011;18781;51.550;5.418;2023-04-25T01:56:36;16.77;;;4.50;;
32295;SDS011;18781;51.550;5.418;2023-04-25T01:59:03;23.42;;;4.75;;
32295;SDS011;18781;51.550;5.418;2023-04-25T02:01:29;17.98;;;4.57;;
32295;SDS011;18781;51.550;5.418;2023-04-25T02:03:55;16.52;;;4.32;;
32295;SDS011;18781;51.550;5.418;2023-04-25T02:06:21;18.33;;;4.53;;
32295;SDS011;18781;51.550;5.418;2023-04-25T02:08:46;34.35;;;5.47;;
32295;SDS011;18781;51.550;5.418;2023-04-25T02:11:12;24.30;;;5.18;;
32295;SDS011;18781;51.550;5.418;2023-04-25T02:13:38;17.85;;;5.10;;
32295;SDS011;18781;51.550;5.418;2023-04-25T02:16:04;19.60;;;5.60;;
32295;SDS011;18781;51.550;5.418;2023-04-25T02:18:29;26.65;;;5.60;;
32295;SDS011;18781;51.550;5.418;2023-04-25T02:20:56;29.40;;;5.32;;
32295;SDS011;18781;51.550;5.418;2023-04-25T02:23:24;27.17;;;5.18;;
32295;SDS011;18781;51.550;5.418;2023-04-25T02:25:49;23.30;;;5.85;;
32295;SDS011;18781;51.550;5.418;2023-04-25T02:28:15;25.75;;;5.53;;
32295;SDS011;18781;51.550;5.418;2023-04-25T02:30:41;22.13;;;5.05;;
32295;SDS011;18781;51.550;5.418;2023-04-25T02:33:07;20.95;;;5.10;;
32295;SDS011;18781;51.550;5.418;2023-04-25T02:35:32;28.90;;;6.25;;
32295;SDS011;18781;51.550;5.418;2023-04-25T02:37:58;18.73;;;5.45;;
32295;SDS011;18781;51.550;5.418;2023-04-25T02:40:23;26.08;;;5.88;;
32295;SDS011;18781;51.550;5.418;2023-04-25T02:42:49;24.88;;;6.20;;
32295;SDS011;18781;51.550;5.418;2023-04-25T02:45:14;21.60;;;5.88;;
32295;SDS011;18781;51.550;5.418;2023-04-25T02:47:40;21.58;;;5.40;;
32295;SDS011;18781;51.550;5.418;2023-04-25T02:50:06;21.20;;;5.20;;
32295;SDS011;18781;51.550;5.418;2023-04-25T02:52:32;24.85;;;5.53;;
32295;SDS011;18781;51.550;5.418;2023-04-25T02:54:57;24.23;;;6.13;;
32295;SDS011;18781;51.550;5.418;2023-04-25T02:57:23;22.70;;;5.00;;
32295;SDS011;18781;51.550;5.418;2023-04-25T02:59:48;24.42;;;6.25;;
32295;SDS011;18781;51.550;5.418;2023-04-25T03:02:14;18.08;;;5.63;;
32295;SDS011;18781;51.550;5.418;2023-04-25T03:04:39;21.10;;;5.38;;
32295;SDS011;18781;51.550;5.418;2023-04-25T03:07:05;19.65;;;5.30;;
32295;SDS011;18781;51.550;5.418;2023-04-25T03:09:31;20.70;;;5.28;;
32295;SDS011;18781;51.550;5.418;2023-04-25T03:11:56;28.13;;;5.13;;
32295;SDS011;18781;51.550;5.418;2023-04-25T03:14:22;19.30;;;5.25;;
32295;SDS011;18781;51.550;5.418;2023-04-25T03:16:47;25.30;;;6.53;;
32295;SDS011;18781;51.550;5.418;2023-04-25T03:19:13;28.35;;;6.30;;
32295;SDS011;18781;51.550;5.418;2023-04-25T03:21:41;21.00;;;5.95;;
32295;SDS011;18781;51.550;5.418;2023-04-25T03:24:06;26.85;;;5.78;;
32295;SDS011;18781;51.550;5.418;2023-04-25T03:26:32;19.25;;;5.38;;
32295;SDS011;18781;51.550;5.418;2023-04-25T03:28:57;19.90;;;5.38;;
32295;SDS011;18781;51.550;5.418;2023-04-25T03:31:23;28.85;;;5.90;;
32295;SDS011;18781;51.550;5.418;2023-04-25T03:33:48;29.35;;;5.65;;
32295;SDS011;18781;51.550;5.418;2023-04-25T03:36:14;29.85;;;6.38;;
32295;SDS011;18781;51.550;5.418;2023-04-25T03:38:40;24.58;;;5.68;;
32295;SDS011;18781;51.550;5.418;2023-04-25T03:41:08;24.45;;;5.75;;
32295;SDS011;18781;51.550;5.418;2023-04-25T03:43:33;24.52;;;5.45;;
32295;SDS011;18781;51.550;5.418;2023-04-25T03:46:00;20.38;;;5.50;;
32295;SDS011;18781;51.550;5.418;2023-04-25T03:48:26;23.27;;;5.65;;
32295;SDS011;18781;51.550;5.418;2023-04-25T03:50:52;29.60;;;5.78;;
32295;SDS011;18781;51.550;5.418;2023-04-25T03:53:18;23.92;;;5.45;;
32295;SDS011;18781;51.550;5.418;2023-04-25T03:55:44;21.05;;;5.20;;
32295;SDS011;18781;51.550;5.418;2023-04-25T03:58:10;18.25;;;5.00;;
32295;SDS011;18781;51.550;5.418;2023-04-25T04:00:35;26.17;;;5.95;;
32295;SDS011;18781;51.550;5.418;2023-04-25T04:03:01;27.52;;;5.57;;
32295;SDS011;18781;51.550;5.418;2023-04-25T04:05:27;21.92;;;5.30;;
32295;SDS011;18781;51.550;5.418;2023-04-25T04:07:53;23.73;;;5.43;;
32295;SDS011;18781;51.550;5.418;2023-04-25T04:10:19;31.02;;;5.50;;
32295;SDS011;18781;51.550;5.418;2023-04-25T04:12:45;20.38;;;5.38;;
32295;SDS011;18781;51.550;5.418;2023-04-25T04:15:10;19.67;;;5.40;;
32295;SDS011;18781;51.550;5.418;2023-04-25T04:17:37;21.75;;;5.50;;
32295;SDS011;18781;51.550;5.418;2023-04-25T04:20:02;28.88;;;5.50;;
32295;SDS011;18781;51.550;5.418;2023-04-25T04:22:29;29.85;;;5.70;;
32295;SDS011;18781;51.550;5.418;2023-04-25T04:24:54;21.88;;;5.22;;
32295;SDS011;18781;51.550;5.418;2023-04-25T04:27:21;24.73;;;4.70;;
32295;SDS011;18781;51.550;5.418;2023-04-25T04:29:47;29.73;;;5.47;;
32295;SDS011;18781;51.550;5.418;2023-04-25T04:32:14;23.77;;;5.45;;
32295;SDS011;18781;51.550;5.418;2023-04-25T04:34:39;22.92;;;5.47;;
32295;SDS011;18781;51.550;5.418;2023-04-25T04:37:06;27.83;;;5.53;;
32295;SDS011;18781;51.550;5.418;2023-04-25T04:39:32;26.52;;;5.75;;
32295;SDS011;18781;51.550;5.418;2023-04-25T04:42:01;30.65;;;4.95;;
32295;SDS011;18781;51.550;5.418;2023-04-25T04:44:27;28.40;;;5.65;;
32295;SDS011;18781;51.550;5.418;2023-04-25T04:46:53;22.60;;;5.05;;
32295;SDS011;18781;51.550;5.418;2023-04-25T04:49:19;17.00;;;5.38;;
32295;SDS011;18781;51.550;5.418;2023-04-25T04:51:45;29.35;;;4.82;;
32295;SDS011;18781;51.550;5.418;2023-04-25T04:54:10;26.83;;;5.80;;
32295;SDS011;18781;51.550;5.418;2023-04-25T04:56:36;25.35;;;4.85;;
32295;SDS011;18781;51.550;5.418;2023-04-25T04:59:01;19.80;;;5.40;;
32295;SDS011;18781;51.550;5.418;2023-04-25T05:01:27;25.20;;;5.40;;
32295;SDS011;18781;51.550;5.418;2023-04-25T05:03:54;19.17;;;4.65;;
32295;SDS011;18781;51.550;5.418;2023-04-25T05:06:25;23.63;;;4.78;;
32295;SDS011;18781;51.550;5.418;2023-04-25T05:08:51;17.38;;;4.72;;
32295;SDS011;18781;51.550;5.418;2023-04-25T05:11:18;25.83;;;5.22;;
32295;SDS011;18781;51.550;5.418;2023-04-25T05:13:44;26.30;;;5.20;;
32295;SDS011;18781;51.550;5.418;2023-04-25T05:16:10;28.23;;;6.00;;
32295;SDS011;18781;51.550;5.418;2023-04-25T05:18:36;26.65;;;5.50;;
32295;SDS011;18781;51.550;5.418;2023-04-25T05:21:02;27.38;;;4.82;;
32295;SDS011;18781;51.550;5.418;2023-04-25T05:23:27;29.58;;;5.72;;
32295;SDS011;18781;51.550;5.418;2023-04-25T05:25:55;17.85;;;5.05;;
32295;SDS011;18781;51.550;5.418;2023-04-25T05:28:20;28.85;;;4.93;;
32295;SDS011;18781;51.550;5.418;2023-04-25T05:30:46;26.15;;;5.22;;
32295;SDS011;18781;51.550;5.418;2023-04-25T05:33:11;20.98;;;5.18;;
32295;SDS011;18781;51.550;5.418;2023-04-25T05:35:37;19.27;;;5.13;;
32295;SDS011;18781;51.550;5.418;2023-04-25T05:38:03;33.53;;;5.15;;
32295;SDS011;18781;51.550;5.418;2023-04-25T05:40:28;24.38;;;5.45;;
32295;SDS011;18781;51.550;5.418;2023-04-25T05:42:54;36.10;;;5.22;;
32295;SDS011;18781;51.550;5.418;2023-04-25T05:45:19;24.38;;;5.03;;
32295;SDS011;18781;51.550;5.418;2023-04-25T05:47:45;27.88;;;5.57;;
32295;SDS011;18781;51.550;5.418;2023-04-25T05:50:11;17.02;;;4.95;;
32295;SDS011;18781;51.550;5.418;2023-04-25T05:52:36;27.10;;;5.05;;
32295;SDS011;18781;51.550;5.418;2023-04-25T05:55:02;22.63;;;5.50;;
32295;SDS011;18781;51.550;5.418;2023-04-25T05:57:27;25.38;;;5.07;;
32295;SDS011;18781;51.550;5.418;2023-04-25T05:59:53;25.65;;;5.25;;
32295;SDS011;18781;51.550;5.418;2023-04-25T06:02:19;32.42;;;5.25;;
32295;SDS011;18781;51.550;5.418;2023-04-25T06:04:46;26.73;;;5.45;;
32295;SDS011;18781;51.550;5.418;2023-04-25T06:07:14;22.73;;;5.15;;
32295;SDS011;18781;51.550;5.418;2023-04-25T06:09:39;21.35;;;5.30;;
32295;SDS011;18781;51.550;5.418;2023-04-25T06:12:05;23.02;;;5.13;;
32295;SDS011;18781;51.550;5.418;2023-04-25T06:14:31;25.70;;;5.30;;
32295;SDS011;18781;51.550;5.418;2023-04-25T06:16:58;16.92;;;4.97;;
32295;SDS011;18781;51.550;5.418;2023-04-25T06:19:23;17.02;;;4.90;;
32295;SDS011;18781;51.550;5.418;2023-04-25T06:21:49;31.52;;;5.45;;
32295;SDS011;18781;51.550;5.418;2023-04-25T06:24:14;17.65;;;3.88;;
32295;SDS011;18781;51.550;5.418;2023-04-25T06:26:40;23.55;;;4.05;;
32295;SDS011;18781;51.550;5.418;2023-04-25T06:29:06;23.35;;;4.60;;
32295;SDS011;18781;51.550;5.418;2023-04-25T06:31:31;22.30;;;5.05;;
32295;SDS011;18781;51.550;5.418;2023-04-25T06:33:58;16.50;;;3.83;;
32295;SDS011;18781;51.550;5.418;2023-04-25T06:36:23;21.15;;;4.13;;
32295;SDS011;18781;51.550;5.418;2023-04-25T06:38:52;13.30;;;3.47;;
32295;SDS011;18781;51.550;5.418;2023-04-25T06:41:18;21.92;;;4.47;;
32295;SDS011;18781;51.550;5.418;2023-04-25T06:43:43;19.55;;;4.05;;
32295;SDS011;18781;51.550;5.418;2023-04-25T06:46:09;26.13;;;4.15;;
32295;SDS011;18781;51.550;5.418;2023-04-25T06:48:35;18.67;;;3.45;;
32295;SDS011;18781;51.550;5.418;2023-04-25T06:51:01;20.15;;;3.78;;
32295;SDS011;18781;51.550;5.418;2023-04-25T06:53:27;12.85;;;3.03;;
32295;SDS011;18781;51.550;5.418;2023-04-25T06:55:52;16.00;;;3.47;;
32295;SDS011;18781;51.550;5.418;2023-04-25T06:58:18;12.13;;;3.10;;
32295;SDS011;18781;51.550;5.418;2023-04-25T07:00:44;17.70;;;2.88;;
32295;SDS011;18781;51.550;5.418;2023-04-25T07:03:09;19.27;;;3.40;;
32295;SDS011;18781;51.550;5.418;2023-04-25T07:05:35;15.25;;;3.03;;
32295;SDS011;18781;51.550;5.418;2023-04-25T07:08:00;12.55;;;3.08;;
32295;SDS011;18781;51.550;5.418;2023-04-25T07:10:26;16.23;;;3.00;;
32295;SDS011;18781;51.550;5.418;2023-04-25T07:12:52;13.85;;;3.03;;
32295;SDS011;18781;51.550;5.418;2023-04-25T07:15:18;13.15;;;2.83;;
32295;SDS011;18781;51.550;5.418;2023-04-25T07:17:43;20.05;;;2.65;;
32295;SDS011;18781;51.550;5.418;2023-04-25T07:20:09;18.52;;;2.92;;
32295;SDS011;18781;51.550;5.418;2023-04-25T07:22:35;16.83;;;2.95;;
32295;SDS011;18781;51.550;5.418;2023-04-25T07:25:00;13.32;;;2.63;;
32295;SDS011;18781;51.550;5.418;2023-04-25T07:27:26;15.40;;;2.30;;
32295;SDS011;18781;51.550;5.418;2023-04-25T07:29:52;16.67;;;2.55;;
32295;SDS011;18781;51.550;5.418;2023-04-25T07:32:18;9.90;;;2.13;;
32295;SDS011;18781;51.550;5.418;2023-04-25T07:34:44;12.48;;;2.10;;
32295;SDS011;18781;51.550;5.418;2023-04-25T07:37:10;17.30;;;2.80;;
32295;SDS011;18781;51.550;5.418;2023-04-25T07:39:35;10.13;;;2.40;;
32295;SDS011;18781;51.550;5.418;2023-04-25T07:42:02;15.60;;;2.78;;
32295;SDS011;18781;51.550;5.418;2023-04-25T07:44:28;11.02;;;2.20;;
32295;SDS011;18781;51.550;5.418;2023-04-25T07:46:55;10.52;;;2.30;;
32295;SDS011;18781;51.550;5.418;2023-04-25T07:49:21;12.27;;;2.53;;
32295;SDS011;18781;51.550;5.418;2023-04-25T07:51:46;13.73;;;2.75;;
32295;SDS011;18781;51.550;5.418;2023-04-25T07:54:13;17.90;;;2.88;;
32295;SDS011;18781;51.550;5.418;2023-04-25T07:56:40;13.07;;;2.45;;
32295;SDS011;18781;51.550;5.418;2023-04-25T07:59:06;18.00;;;2.63;;
32295;SDS011;18781;51.550;5.418;2023-04-25T08:01:33;20.30;;;2.65;;
32295;SDS011;18781;51.550;5.418;2023-04-25T08:03:59;12.15;;;2.45;;
32295;SDS011;18781;51.550;5.418;2023-04-25T08:06:25;31.13;;;3.55;;
32295;SDS011;18781;51.550;5.418;2023-04-25T08:08:51;12.60;;;2.50;;
32295;SDS011;18781;51.550;5.418;2023-04-25T08:11:16;23.98;;;2.72;;
32295;SDS011;18781;51.550;5.418;2023-04-25T08:13:42;13.68;;;2.60;;
32295;SDS011;18781;51.550;5.418;2023-04-25T08:16:07;16.15;;;2.42;;
32295;SDS011;18781;51.550;5.418;2023-04-25T08:18:33;15.77;;;2.60;;
32295;SDS011;18781;51.550;5.418;2023-04-25T08:20:58;17.52;;;2.67;;
32295;SDS011;18781;51.550;5.418;2023-04-25T08:23:24;15.57;;;3.17;;
32295;SDS011;18781;51.550;5.418;2023-04-25T08:25:50;16.38;;;2.53;;
32295;SDS011;18781;51.550;5.418;2023-04-25T08:28:16;16.65;;;2.60;;
32295;SDS011;18781;51.550;5.418;2023-04-25T08:30:41;18.00;;;3.10;;
32295;SDS011;18781;51.550;5.418;2023-04-25T08:33:07;16.40;;;2.78;;
32295;SDS011;18781;51.550;5.418;2023-04-25T08:35:33;20.80;;;3.05;;
32295;SDS011;18781;51.550;5.418;2023-04-25T08:37:58;16.85;;;2.67;;
32295;SDS011;18781;51.550;5.418;2023-04-25T08:40:27;12.63;;;2.72;;
32295;SDS011;18781;51.550;5.418;2023-04-25T08:45:22;16.35;;;2.95;;
32295;SDS011;18781;51.550;5.418;2023-04-25T08:47:48;8.65;;;2.53;;
32295;SDS011;18781;51.550;5.418;2023-04-25T08:50:17;10.48;;;2.38;;
32295;SDS011;18781;51.550;5.418;2023-04-25T08:52:46;13.73;;;2.63;;
32295;SDS011;18781;51.550;5.418;2023-04-25T08:55:13;11.32;;;2.75;;
32295;SDS011;18781;51.550;5.418;2023-04-25T08:57:42;16.02;;;2.58;;
32295;SDS011;18781;51.550;5.418;2023-04-25T09:00:08;13.75;;;2.00;;
32295;SDS011;18781;51.550;5.418;2023-04-25T09:02:35;13.27;;;2.30;;
32295;SDS011;18781;51.550;5.418;2023-04-25T09:05:02;14.07;;;2.28;;
32295;SDS011;18781;51.550;5.418;2023-04-25T09:07:29;14.95;;;3.08;;
32295;SDS011;18781;51.550;5.418;2023-04-25T09:09:55;27.05;;;2.90;;
32295;SDS011;18781;51.550;5.418;2023-04-25T09:12:21;10.32;;;2.00;;
32295;SDS011;18781;51.550;5.418;2023-04-25T09:15:06;9.48;;;1.85;;
32295;SDS011;18781;51.550;5.418;2023-04-25T09:17:34;11.98;;;1.90;;
32295;SDS011;18781;51.550;5.418;2023-04-25T09:20:06;19.15;;;2.17;;
32295;SDS011;18781;51.550;5.418;2023-04-25T09:22:33;19.92;;;2.83;;
32295;SDS011;18781;51.550;5.418;2023-04-25T09:25:02;12.73;;;2.33;;
32295;SDS011;18781;51.550;5.418;2023-04-25T09:27:29;15.23;;;2.50;;
32295;SDS011;18781;51.550;5.418;2023-04-25T09:29:58;10.70;;;1.73;;
32295;SDS011;18781;51.550;5.418;2023-04-25T09:32:27;15.18;;;2.58;;
32295;SDS011;18781;51.550;5.418;2023-04-25T09:34:53;13.05;;;3.55;;
32295;SDS011;18781;51.550;5.418;2023-04-25T09:37:23;14.60;;;2.85;;
32295;SDS011;18781;51.550;5.418;2023-04-25T09:39:52;14.23;;;2.35;;
32295;SDS011;18781;51.550;5.418;2023-04-25T09:42:25;17.38;;;2.97;;
32295;SDS011;18781;51.550;5.418;2023-04-25T09:44:53;14.13;;;2.75;;
32295;SDS011;18781;51.550;5.418;2023-04-25T09:47:20;16.02;;;4.30;;
32295;SDS011;18781;51.550;5.418;2023-04-25T09:49:48;14.13;;;2.72;;
32295;SDS011;18781;51.550;5.418;2023-04-25T09:52:15;13.25;;;2.03;;
32295;SDS011;18781;51.550;5.418;2023-04-25T09:54:42;9.27;;;2.33;;
32295;SDS011;18781;51.550;5.418;2023-04-25T09:59:47;10.95;;;1.85;;
32295;SDS011;18781;51.550;5.418;2023-04-25T10:02:14;8.02;;;1.55;;
32295;SDS011;18781;51.550;5.418;2023-04-25T10:04:41;9.50;;;1.67;;
32295;SDS011;18781;51.550;5.418;2023-04-25T10:07:09;8.55;;;1.40;;
32295;SDS011;18781;51.550;5.418;2023-04-25T10:09:37;8.80;;;1.52;;
32295;SDS011;18781;51.550;5.418;2023-04-25T10:12:07;7.35;;;1.70;;
32295;SDS011;18781;51.550;5.418;2023-04-25T10:14:33;7.55;;;1.40;;
32295;SDS011;18781;51.550;5.418;2023-04-25T10:17:00;6.55;;;1.35;;
32295;SDS011;18781;51.550;5.418;2023-04-25T10:19:26;6.75;;;1.40;;
32295;SDS011;18781;51.550;5.418;2023-04-25T10:21:58;4.43;;;1.40;;
32295;SDS011;18781;51.550;5.418;2023-04-25T10:24:46;7.50;;;1.38;;
32295;SDS011;18781;51.550;5.418;2023-04-25T10:27:12;8.35;;;1.50;;
32295;SDS011;18781;51.550;5.418;2023-04-25T10:29:38;9.57;;;1.65;;
32295;SDS011;18781;51.550;5.418;2023-04-25T10:32:08;5.57;;;1.42;;
32295;SDS011;18781;51.550;5.418;2023-04-25T10:34:37;8.52;;;1.55;;
32295;SDS011;18781;51.550;5.418;2023-04-25T10:37:04;7.15;;;1.40;;
32295;SDS011;18781;51.550;5.418;2023-04-25T10:39:33;9.23;;;1.70;;
32295;SDS011;18781;51.550;5.418;2023-04-25T10:41:59;11.18;;;1.60;;
32295;SDS011;18781;51.550;5.418;2023-04-25T10:44:30;8.48;;;1.63;;
32295;SDS011;18781;51.550;5.418;2023-04-25T10:46:57;12.15;;;1.98;;
32295;SDS011;18781;51.550;5.418;2023-04-25T10:49:30;6.00;;;1.50;;
32295;SDS011;18781;51.550;5.418;2023-04-25T10:52:12;13.02;;;2.00;;
32295;SDS011;18781;51.550;5.418;2023-04-25T10:54:52;6.53;;;1.50;;
32295;SDS011;18781;51.550;5.418;2023-04-25T10:59:57;13.98;;;2.05;;
32295;SDS011;18781;51.550;5.418;2023-04-25T11:02:25;7.90;;;1.77;;
32295;SDS011;18781;51.550;5.418;2023-04-25T11:04:53;5.88;;;1.65;;
32295;SDS011;18781;51.550;5.418;2023-04-25T11:07:39;9.20;;;1.60;;
32295;SDS011;18781;51.550;5.418;2023-04-25T11:10:32;12.38;;;2.10;;
32295;SDS011;18781;51.550;5.418;2023-04-25T11:13:00;11.73;;;2.05;;
32295;SDS011;18781;51.550;5.418;2023-04-25T11:15:26;12.52;;;1.67;;
32295;SDS011;18781;51.550;5.418;2023-04-25T11:17:53;10.43;;;1.70;;
32295;SDS011;18781;51.550;5.418;2023-04-25T11:20:19;8.02;;;1.50;;
32295;SDS011;18781;51.550;5.418;2023-04-25T11:22:45;7.43;;;1.50;;
32295;SDS011;18781;51.550;5.418;2023-04-25T11:25:11;4.75;;;1.35;;
32295;SDS011;18781;51.550;5.418;2023-04-25T11:27:39;7.63;;;1.45;;
32295;SDS011;18781;51.550;5.418;2023-04-25T11:30:18;11.38;;;1.50;;
32295;SDS011;18781;51.550;5.418;2023-04-25T11:32:44;6.22;;;1.65;;
32295;SDS011;18781;51.550;5.418;2023-04-25T11:35:10;8.43;;;1.80;;
32295;SDS011;18781;51.550;5.418;2023-04-25T11:37:38;11.25;;;1.80;;
32295;SDS011;18781;51.550;5.418;2023-04-25T11:40:04;6.03;;;1.50;;
32295;SDS011;18781;51.550;5.418;2023-04-25T11:42:36;6.35;;;1.45;;
32295;SDS011;18781;51.550;5.418;2023-04-25T11:45:08;8.25;;;2.08;;
32295;SDS011;18781;51.550;5.418;2023-04-25T11:47:34;6.35;;;1.58;;
32295;SDS011;18781;51.550;5.418;2023-04-25T11:50:00;8.48;;;1.52;;
32295;SDS011;18781;51.550;5.418;2023-04-25T11:55:16;8.05;;;1.63;;
32295;SDS011;18781;51.550;5.418;2023-04-25T11:57:43;9.40;;;1.45;;
32295;SDS011;18781;51.550;5.418;2023-04-25T12:00:14;9.35;;;1.20;;
32295;SDS011;18781;51.550;5.418;2023-04-25T12:02:51;4.45;;;1.10;;
32295;SDS011;18781;51.550;5.418;2023-04-25T12:05:18;8.48;;;1.70;;
32295;SDS011;18781;51.550;5.418;2023-04-25T12:07:45;3.15;;;1.10;;
32295;SDS011;18781;51.550;5.418;2023-04-25T12:10:11;6.03;;;1.20;;
32295;SDS011;18781;51.550;5.418;2023-04-25T12:12:42;5.30;;;1.08;;
32295;SDS011;18781;51.550;5.418;2023-04-25T12:17:40;8.05;;;1.35;;
32295;SDS011;18781;51.550;5.418;2023-04-25T12:20:10;7.22;;;1.60;;
32295;SDS011;18781;51.550;5.418;2023-04-25T12:22:40;4.25;;;1.00;;
32295;SDS011;18781;51.550;5.418;2023-04-25T12:25:09;7.63;;;1.30;;
32295;SDS011;18781;51.550;5.418;2023-04-25T12:27:38;5.45;;;0.95;;
32295;SDS011;18781;51.550;5.418;2023-04-25T12:30:08;6.88;;;1.30;;
32295;SDS011;18781;51.550;5.418;2023-04-25T12:32:35;4.63;;;1.60;;
32295;SDS011;18781;51.550;5.418;2023-04-25T12:35:01;4.85;;;1.60;;
32295;SDS011;18781;51.550;5.418;2023-04-25T12:37:28;6.45;;;1.40;;
32295;SDS011;18781;51.550;5.418;2023-04-25T12:39:53;4.63;;;1.40;;
32295;SDS011;18781;51.550;5.418;2023-04-25T12:42:19;6.32;;;1.58;;
32295;SDS011;18781;51.550;5.418;2023-04-25T12:44:45;6.30;;;1.00;;
32295;SDS011;18781;51.550;5.418;2023-04-25T12:47:11;5.25;;;1.35;;
32295;SDS011;18781;51.550;5.418;2023-04-25T12:49:37;7.30;;;1.65;;
32295;SDS011;18781;51.550;5.418;2023-04-25T12:52:02;7.15;;;1.23;;
32295;SDS011;18781;51.550;5.418;2023-04-25T12:54:28;9.80;;;1.65;;
32295;SDS011;18781;51.550;5.418;2023-04-25T12:56:54;7.75;;;1.20;;
32295;SDS011;18781;51.550;5.418;2023-04-25T12:59:20;7.38;;;1.95;;
32295;SDS011;18781;51.550;5.418;2023-04-25T13:01:46;12.63;;;1.77;;
32295;SDS011;18781;51.550;5.418;2023-04-25T13:04:12;7.35;;;2.20;;
32295;SDS011;18781;51.550;5.418;2023-04-25T13:06:37;12.38;;;1.80;;
32295;SDS011;18781;51.550;5.418;2023-04-25T13:09:03;8.32;;;1.75;;
32295;SDS011;18781;51.550;5.418;2023-04-25T13:11:29;8.77;;;1.70;;
32295;SDS011;18781;51.550;5.418;2023-04-25T13:13:55;7.85;;;1.17;;
32295;SDS011;18781;51.550;5.418;2023-04-25T13:16:20;4.35;;;1.15;;
32295;SDS011;18781;51.550;5.418;2023-04-25T13:18:46;7.95;;;1.20;;
32295;SDS011;18781;51.550;5.418;2023-04-25T13:21:12;10.00;;;1.60;;
32295;SDS011;18781;51.550;5.418;2023-04-25T13:23:37;8.35;;;1.45;;
32295;SDS011;18781;51.550;5.418;2023-04-25T13:26:03;7.65;;;1.23;;
32295;SDS011;18781;51.550;5.418;2023-04-25T13:28:28;8.50;;;1.35;;
32295;SDS011;18781;51.550;5.418;2023-04-25T13:30:54;10.20;;;1.70;;
32295;SDS011;18781;51.550;5.418;2023-04-25T13:33:20;11.00;;;1.45;;
32295;SDS011;18781;51.550;5.418;2023-04-25T13:35:46;7.00;;;1.45;;
32295;SDS011;18781;51.550;5.418;2023-04-25T13:38:22;7.32;;;2.30;;
32295;SDS011;18781;51.550;5.418;2023-04-25T13:40:49;12.82;;;2.70;;
32295;SDS011;18781;51.550;5.418;2023-04-25T13:43:15;9.70;;;3.22;;
32295;SDS011;18781;51.550;5.418;2023-04-25T13:45:41;4.07;;;1.27;;
32295;SDS011;18781;51.550;5.418;2023-04-25T13:48:06;11.85;;;1.98;;
32295;SDS011;18781;51.550;5.418;2023-04-25T13:50:32;11.38;;;1.80;;
32295;SDS011;18781;51.550;5.418;2023-04-25T13:52:58;10.65;;;2.42;;
32295;SDS011;18781;51.550;5.418;2023-04-25T13:55:23;6.32;;;1.77;;
32295;SDS011;18781;51.550;5.418;2023-04-25T13:57:49;21.45;;;2.60;;
32295;SDS011;18781;51.550;5.418;2023-04-25T14:00:14;6.68;;;1.98;;
32295;SDS011;18781;51.550;5.418;2023-04-25T14:02:40;9.77;;;1.75;;
32295;SDS011;18781;51.550;5.418;2023-04-25T14:05:06;10.52;;;1.83;;
32295;SDS011;18781;51.550;5.418;2023-04-25T14:07:36;11.02;;;2.10;;
32295;SDS011;18781;51.550;5.418;2023-04-25T14:10:01;10.70;;;2.28;;
32295;SDS011;18781;51.550;5.418;2023-04-25T14:12:29;11.63;;;2.30;;
32295;SDS011;18781;51.550;5.418;2023-04-25T14:14:55;9.18;;;2.20;;
32295;SDS011;18781;51.550;5.418;2023-04-25T14:17:20;11.00;;;1.65;;
32295;SDS011;18781;51.550;5.418;2023-04-25T14:19:46;11.00;;;2.30;;
32295;SDS011;18781;51.550;5.418;2023-04-25T14:22:13;9.55;;;1.90;;
32295;SDS011;18781;51.550;5.418;2023-04-25T14:24:39;10.73;;;2.00;;
32295;SDS011;18781;51.550;5.418;2023-04-25T14:27:04;9.20;;;2.15;;
32295;SDS011;18781;51.550;5.418;2023-04-25T14:29:30;12.73;;;2.20;;
32295;SDS011;18781;51.550;5.418;2023-04-25T14:31:56;10.38;;;2.05;;
32295;SDS011;18781;51.550;5.418;2023-04-25T14:34:23;12.57;;;1.88;;
32295;SDS011;18781;51.550;5.418;2023-04-25T14:36:49;11.55;;;2.05;;
32295;SDS011;18781;51.550;5.418;2023-04-25T14:39:15;9.18;;;1.77;;
32295;SDS011;18781;51.550;5.418;2023-04-25T14:41:41;11.32;;;1.95;;
32295;SDS011;18781;51.550;5.418;2023-04-25T14:44:07;12.00;;;2.33;;
32295;SDS011;18781;51.550;5.418;2023-04-25T14:46:33;8.85;;;2.25;;
32295;SDS011;18781;51.550;5.418;2023-04-25T14:48:59;9.18;;;1.90;;